createdAt,value
2022-12-06T00:01:20.686Z,70.40
2022-12-06T00:03:52.307Z,70.80
2022-12-06T00:06:21.196Z,70.70
2022-12-06T00:08:49.210Z,70.60
2022-12-06T00:11:19.200Z,70.70
2022-12-06T00:13:46.706Z,70.60
2022-12-06T00:16:16.432Z,70.70
2022-12-06T00:18:44.908Z,70.80
2022-12-06T00:21:16.187Z,70.70
2022-12-06T00:23:52.140Z,70.80
2022-12-06T00:26:20.116Z,70.80
2022-12-06T00:28:47.272Z,70.80
2022-12-06T00:31:17.062Z,70.70
2022-12-06T00:33:44.014Z,70.80
2022-12-06T00:36:15.432Z,70.70
2022-12-06T00:38:43.171Z,70.90
2022-12-06T00:41:12.749Z,70.90
2022-12-06T00:43:39.993Z,71.10
2022-12-06T00:46:10.677Z,71.00
2022-12-06T00:48:37.668Z,71.10
2022-12-06T00:51:05.193Z,71.10
2022-12-06T00:53:32.121Z,71.10
2022-12-06T00:55:59.079Z,71.20
2022-12-06T00:58:26.360Z,71.30
2022-12-06T01:00:53.839Z,71.20
2022-12-06T01:03:21.580Z,71.30
2022-12-06T01:05:50.864Z,71.40
2022-12-06T01:08:19.152Z,71.40
2022-12-06T01:10:55.767Z,71.40
2022-12-06T01:13:22.735Z,71.70
2022-12-06T01:15:50.038Z,71.50
2022-12-06T01:18:16.914Z,71.60
2022-12-06T01:20:43.691Z,72.40
2022-12-06T01:23:10.444Z,71.70
2022-12-06T01:25:37.246Z,71.80
2022-12-06T01:28:04.190Z,71.70
2022-12-06T01:30:31.649Z,71.70
2022-12-06T01:32:58.480Z,71.80
2022-12-06T01:35:25.358Z,71.70
2022-12-06T01:37:52.123Z,71.70
2022-12-06T01:40:18.965Z,71.70
2022-12-06T01:42:45.729Z,71.60
2022-12-06T01:45:12.543Z,72.50
2022-12-06T01:47:42.413Z,71.70
2022-12-06T01:50:22.006Z,71.70
2022-12-06T01:53:00.920Z,70.40
2022-12-06T01:55:30.912Z,71.90
2022-12-06T01:58:01.953Z,72.00
2022-12-06T02:00:28.749Z,72.20
2022-12-06T02:02:59.023Z,72.20
2022-12-06T02:05:26.369Z,72.40
2022-12-06T02:07:53.916Z,72.30
2022-12-06T02:10:21.113Z,72.40
2022-12-06T02:12:52.905Z,72.50
2022-12-06T02:15:24.687Z,72.70
2022-12-06T02:18:03.048Z,72.80
2022-12-06T02:20:36.820Z,73.60
2022-12-06T02:23:22.197Z,72.90
2022-12-06T02:26:07.887Z,73.10
2022-12-06T02:28:40.445Z,72.80
2022-12-06T02:31:16.591Z,75.30
2022-12-06T02:33:49.182Z,73.00
2022-12-06T02:36:22.023Z,72.80
2022-12-06T02:38:57.794Z,72.70
2022-12-06T02:41:30.386Z,72.70
2022-12-06T02:44:03.151Z,72.70
2022-12-06T02:46:35.384Z,72.50
2022-12-06T02:49:05.490Z,72.50
2022-12-06T02:51:34.889Z,72.60
2022-12-06T02:54:05.660Z,72.50
2022-12-06T02:56:33.431Z,72.40
2022-12-06T02:59:00.620Z,72.30
2022-12-06T03:01:31.347Z,72.30
2022-12-06T03:04:09.988Z,72.40
2022-12-06T03:06:42.696Z,72.30
2022-12-06T03:09:12.257Z,73.00
2022-12-06T03:12:04.601Z,72.30
2022-12-06T03:14:42.921Z,72.40
2022-12-06T03:17:39.394Z,72.80
2022-12-06T03:20:15.697Z,72.40
2022-12-06T03:22:48.580Z,72.40
2022-12-06T03:25:16.814Z,72.10
2022-12-06T03:27:44.997Z,72.10
2022-12-06T03:30:13.920Z,72.10
2022-12-06T03:32:45.390Z,72.20
2022-12-06T03:35:16.075Z,72.40
2022-12-06T03:37:47.299Z,72.40
2022-12-06T03:40:23.485Z,72.50
2022-12-06T03:42:50.898Z,72.50
2022-12-06T03:45:18.997Z,72.40
2022-12-06T03:48:01.520Z,72.30
2022-12-06T03:50:39.803Z,72.30
2022-12-06T03:53:07.169Z,72.20
2022-12-06T03:55:33.975Z,72.20
2022-12-06T03:58:00.819Z,72.20
2022-12-06T04:00:27.888Z,72.40
2022-12-06T04:02:54.657Z,72.40
2022-12-06T04:05:21.455Z,72.30
2022-12-06T04:07:48.478Z,72.20
2022-12-06T04:10:15.321Z,72.20
2022-12-06T04:13:00.508Z,72.10
2022-12-06T04:15:36.997Z,72.10
2022-12-06T04:18:18.436Z,72.20
2022-12-06T04:21:14.304Z,72.20
2022-12-06T04:23:43.898Z,72.00
2022-12-06T04:26:13.351Z,71.90
2022-12-06T04:28:59.180Z,72.00
2022-12-06T04:31:45.411Z,72.00
2022-12-06T04:34:31.255Z,72.20
2022-12-06T04:37:16.783Z,72.00
2022-12-06T04:39:44.300Z,72.00
2022-12-06T04:42:31.441Z,72.00
2022-12-06T04:44:58.674Z,71.90
2022-12-06T04:47:25.490Z,71.90
2022-12-06T04:49:52.555Z,69.90
2022-12-06T04:52:19.455Z,71.80
2022-12-06T04:54:47.171Z,71.80
2022-12-06T04:57:16.192Z,71.90
2022-12-06T04:59:44.290Z,71.90
2022-12-06T05:02:14.228Z,71.80
2022-12-06T05:04:41.042Z,72.00
2022-12-06T05:07:08.374Z,72.00
2022-12-06T05:09:35.247Z,71.80
2022-12-06T05:12:02.069Z,72.00
2022-12-06T05:14:29.052Z,71.90
2022-12-06T05:16:55.909Z,71.90
2022-12-06T05:19:22.796Z,71.90
2022-12-06T05:21:49.563Z,71.90
2022-12-06T05:24:16.354Z,71.90
2022-12-06T05:26:43.514Z,71.90
2022-12-06T05:29:10.306Z,71.80
2022-12-06T05:31:37.150Z,71.80
2022-12-06T05:34:03.975Z,71.70
2022-12-06T05:36:30.797Z,71.70
2022-12-06T05:38:57.771Z,71.50
2022-12-06T05:41:24.972Z,71.60
2022-12-06T05:43:52.005Z,71.60
2022-12-06T05:46:18.907Z,71.50
2022-12-06T05:48:45.992Z,71.70
2022-12-06T05:51:12.905Z,71.30
2022-12-06T05:53:40.838Z,71.20
2022-12-06T05:56:10.665Z,71.20
2022-12-06T05:58:37.758Z,71.10
2022-12-06T06:01:06.240Z,71.00
2022-12-06T06:03:33.658Z,70.90
2022-12-06T06:06:02.088Z,70.80
2022-12-06T06:08:30.115Z,70.80
2022-12-06T06:10:57.580Z,70.80
2022-12-06T06:13:24.535Z,70.90
2022-12-06T06:15:51.424Z,70.80
2022-12-06T06:18:19.265Z,70.80
2022-12-06T06:20:54.818Z,70.80
2022-12-06T06:23:22.530Z,70.60
2022-12-06T06:25:49.347Z,70.70
2022-12-06T06:28:16.968Z,70.90
2022-12-06T06:30:44.678Z,70.80
2022-12-06T06:33:12.073Z,70.60
2022-12-06T06:35:39.545Z,70.50
2022-12-06T06:38:06.710Z,70.60
2022-12-06T06:40:33.950Z,70.70
2022-12-06T06:43:18.588Z,70.90
2022-12-06T06:46:00.067Z,71.00
2022-12-06T06:48:29.871Z,71.00
2022-12-06T06:51:01.971Z,71.00
2022-12-06T06:53:29.056Z,70.00
2022-12-06T06:55:55.886Z,71.00
2022-12-06T06:58:23.012Z,71.10
2022-12-06T07:00:58.393Z,71.10
2022-12-06T07:03:27.969Z,71.20
2022-12-06T07:06:04.783Z,71.20
2022-12-06T07:08:32.299Z,71.20
2022-12-06T07:10:59.531Z,71.10
2022-12-06T07:13:28.607Z,71.10
2022-12-06T07:15:55.681Z,71.20
2022-12-06T07:18:23.662Z,71.20
2022-12-06T07:20:59.424Z,71.20
2022-12-06T07:23:26.204Z,71.30
2022-12-06T07:26:17.880Z,71.10
2022-12-06T07:28:46.505Z,71.30
2022-12-06T07:31:17.388Z,71.80
2022-12-06T07:33:45.273Z,71.20
2022-12-06T07:36:14.183Z,71.20
2022-12-06T07:38:42.889Z,71.50
2022-12-06T07:41:32.881Z,72.10
2022-12-06T07:44:19.907Z,71.30
2022-12-06T07:46:47.258Z,71.30
2022-12-06T07:49:15.947Z,71.30
2022-12-06T07:51:44.026Z,71.30
2022-12-06T07:54:11.452Z,71.20
2022-12-06T07:56:38.723Z,70.60
2022-12-06T07:59:05.865Z,71.20
2022-12-06T08:01:33.148Z,71.20
2022-12-06T08:04:01.680Z,71.10
2022-12-06T08:06:29.822Z,71.10
2022-12-06T08:08:56.644Z,71.20
2022-12-06T08:11:24.374Z,71.10
2022-12-06T08:13:52.155Z,71.30
2022-12-06T08:16:19.008Z,71.40
2022-12-06T08:18:45.894Z,71.30
2022-12-06T08:21:13.331Z,71.30
2022-12-06T08:23:40.251Z,71.10
2022-12-06T08:26:10.123Z,71.10
2022-12-06T08:28:38.256Z,71.00
2022-12-06T08:31:10.417Z,70.80
2022-12-06T08:33:37.601Z,70.70
2022-12-06T08:36:12.772Z,70.70
2022-12-06T08:38:40.443Z,70.90
2022-12-06T08:41:26.970Z,70.90
2022-12-06T08:43:55.230Z,71.00
2022-12-06T08:46:22.879Z,70.80
2022-12-06T08:48:49.928Z,70.80
2022-12-06T08:51:16.754Z,70.80
2022-12-06T08:53:43.711Z,70.70
2022-12-06T08:56:11.237Z,70.90
2022-12-06T08:58:38.098Z,70.50
2022-12-06T09:01:18.215Z,70.30
2022-12-06T09:03:45.037Z,70.20
2022-12-06T09:06:12.582Z,70.20
2022-12-06T09:08:39.784Z,70.20
2022-12-06T09:11:07.742Z,70.20
2022-12-06T09:13:36.460Z,70.30
2022-12-06T09:16:15.899Z,70.30
2022-12-06T09:18:44.167Z,70.30
2022-12-06T09:21:14.485Z,71.70
2022-12-06T09:23:41.391Z,70.60
2022-12-06T09:26:08.517Z,70.60
2022-12-06T09:28:37.877Z,70.50
2022-12-06T09:31:05.871Z,70.40
2022-12-06T09:33:33.098Z,70.50
2022-12-06T09:36:28.712Z,70.50
2022-12-06T09:39:19.999Z,70.30
2022-12-06T09:42:10.976Z,70.20
2022-12-06T09:44:56.150Z,70.40
2022-12-06T09:47:38.862Z,70.60
2022-12-06T09:50:24.005Z,70.70
2022-12-06T09:53:12.743Z,70.40
2022-12-06T09:56:03.934Z,70.40
2022-12-06T09:58:45.756Z,70.20
2022-12-06T10:01:39.498Z,70.30
2022-12-06T10:04:39.854Z,70.00
2022-12-06T10:07:13.771Z,70.00
2022-12-06T10:09:55.620Z,70.00
2022-12-06T10:12:31.599Z,70.00
2022-12-06T10:15:10.662Z,70.20
2022-12-06T10:17:49.096Z,69.90
2022-12-06T10:20:45.641Z,70.10
2022-12-06T10:23:30.546Z,70.10
2022-12-06T10:26:29.694Z,69.80
2022-12-06T10:29:03.990Z,69.60
2022-12-06T10:31:59.713Z,69.80
2022-12-06T10:34:55.546Z,69.80
2022-12-06T10:37:48.158Z,69.70
2022-12-06T10:40:24.032Z,69.90
2022-12-06T10:43:00.631Z,70.20
2022-12-06T10:45:53.340Z,70.40
2022-12-06T10:48:35.244Z,70.90
2022-12-06T10:51:10.857Z,70.00
2022-12-06T10:53:45.124Z,69.50
2022-12-06T10:56:24.274Z,70.10
2022-12-06T10:58:55.630Z,70.00
2022-12-06T11:01:28.483Z,70.00
2022-12-06T11:04:09.985Z,70.20
2022-12-06T11:06:57.266Z,70.40
2022-12-06T11:09:30.235Z,71.30
2022-12-06T11:11:57.199Z,70.70
2022-12-06T11:14:46.562Z,70.60
2022-12-06T11:17:27.570Z,70.50
2022-12-06T11:20:31.175Z,70.50
2022-12-06T11:23:11.509Z,70.40
2022-12-06T11:26:00.388Z,70.70
2022-12-06T11:28:30.273Z,70.20
2022-12-06T11:30:57.645Z,70.40
2022-12-06T11:33:32.627Z,70.90
2022-12-06T11:36:06.345Z,70.00
2022-12-06T11:38:35.059Z,69.80
2022-12-06T11:41:05.003Z,69.60
2022-12-06T11:43:35.948Z,69.60
2022-12-06T11:46:05.535Z,69.40
2022-12-06T11:48:34.944Z,69.40
2022-12-06T11:51:02.117Z,69.30
2022-12-06T11:53:39.152Z,69.20
2022-12-06T11:56:28.521Z,69.10
2022-12-06T11:59:24.800Z,68.90
2022-12-06T12:01:54.875Z,68.70
2022-12-06T12:04:39.759Z,68.90
2022-12-06T12:07:16.380Z,68.80
2022-12-06T12:09:53.966Z,68.90
2022-12-06T12:12:24.715Z,69.00
2022-12-06T12:14:58.221Z,69.20
2022-12-06T12:17:34.548Z,68.90
2022-12-06T12:20:03.386Z,68.60
2022-12-06T12:22:42.889Z,68.90
2022-12-06T12:25:22.810Z,68.70
2022-12-06T12:27:54.971Z,68.60
2022-12-06T12:30:21.883Z,68.90
2022-12-06T12:33:05.491Z,70.80
2022-12-06T12:35:44.642Z,68.50
2022-12-06T12:38:11.623Z,68.00
2022-12-06T12:41:13.412Z,67.70
2022-12-06T12:43:45.799Z,67.20
2022-12-06T12:46:19.443Z,67.70
2022-12-06T12:48:48.562Z,67.40
2022-12-06T12:51:36.251Z,67.30
2022-12-06T12:54:25.838Z,66.90
2022-12-06T12:56:53.558Z,67.00
2022-12-06T12:59:23.812Z,68.00
2022-12-06T13:01:54.569Z,67.20
2022-12-06T13:04:42.478Z,67.10
2022-12-06T13:07:26.118Z,67.00
2022-12-06T13:10:22.485Z,66.90
2022-12-06T13:12:55.510Z,66.90
2022-12-06T13:15:30.961Z,67.20
2022-12-06T13:18:02.050Z,67.40
2022-12-06T13:20:32.627Z,67.50
2022-12-06T13:23:04.844Z,67.60
2022-12-06T13:25:31.890Z,70.10
2022-12-06T13:28:05.640Z,67.80
2022-12-06T13:30:35.648Z,67.60
2022-12-06T13:33:08.431Z,67.50
2022-12-06T13:35:40.171Z,67.60
2022-12-06T13:38:26.344Z,67.50
2022-12-06T13:40:54.975Z,67.40
2022-12-06T13:43:24.791Z,67.50
2022-12-06T13:45:52.645Z,67.40
2022-12-06T13:48:25.336Z,67.60
2022-12-06T13:51:01.851Z,67.80
2022-12-06T13:53:34.060Z,67.80
2022-12-06T13:56:03.060Z,67.70
2022-12-06T13:58:29.815Z,67.90
2022-12-06T14:00:57.430Z,68.10
2022-12-06T14:03:27.103Z,68.30
2022-12-06T14:06:01.036Z,68.40
2022-12-06T14:08:39.406Z,68.40
2022-12-06T14:11:25.718Z,68.40
2022-12-06T14:13:55.602Z,68.40
2022-12-06T14:16:42.439Z,68.30
2022-12-06T14:19:32.132Z,68.40
2022-12-06T14:22:14.225Z,68.40
2022-12-06T14:24:43.326Z,68.40
2022-12-06T14:27:20.563Z,68.30
2022-12-06T14:30:22.062Z,68.20
2022-12-06T14:32:54.614Z,70.30
2022-12-06T14:35:27.637Z,68.10
2022-12-06T14:38:01.544Z,68.10
2022-12-06T14:41:03.264Z,68.10
2022-12-06T14:43:32.193Z,68.10
2022-12-06T14:46:04.901Z,68.20
2022-12-06T14:48:52.857Z,68.10
2022-12-06T14:51:27.020Z,67.90
2022-12-06T14:53:54.091Z,68.00
2022-12-06T14:56:24.142Z,68.00
2022-12-06T14:58:51.477Z,68.20
2022-12-06T15:01:22.186Z,68.20
2022-12-06T15:04:01.146Z,68.20
2022-12-06T15:06:30.150Z,68.30
2022-12-06T15:08:56.892Z,68.40
2022-12-06T15:11:44.363Z,68.30
2022-12-06T15:14:20.413Z,68.30
2022-12-06T15:17:15.015Z,68.40
2022-12-06T15:19:54.278Z,68.40
2022-12-06T15:22:25.591Z,68.20
2022-12-06T15:24:57.455Z,68.40
2022-12-06T15:27:26.929Z,68.50
2022-12-06T15:29:54.004Z,68.60
2022-12-06T15:32:23.780Z,68.40
2022-12-06T15:34:50.837Z,68.60
2022-12-06T15:40:04.986Z,68.70
2022-12-06T15:42:31.892Z,68.80
2022-12-06T15:44:58.807Z,68.90
2022-12-06T15:47:25.750Z,69.00
2022-12-06T15:49:53.949Z,69.00
2022-12-06T15:52:23.555Z,68.90
2022-12-06T15:54:50.702Z,69.00
2022-12-06T15:57:17.943Z,69.00
2022-12-06T15:59:44.794Z,69.00
2022-12-06T16:02:17.240Z,69.00
2022-12-06T16:04:45.710Z,68.80
2022-12-06T16:07:19.086Z,68.70
2022-12-06T16:09:47.277Z,69.40
2022-12-06T16:12:14.083Z,68.10
2022-12-06T16:14:40.838Z,68.60
2022-12-06T16:17:07.973Z,68.50
2022-12-06T16:20:10.093Z,68.50
2022-12-06T16:22:55.515Z,68.40
2022-12-06T16:25:22.316Z,68.50
2022-12-06T16:27:49.229Z,68.50
2022-12-06T16:30:16.471Z,68.60
2022-12-06T16:32:43.241Z,68.70
2022-12-06T16:35:09.995Z,68.80
2022-12-06T16:37:36.815Z,68.80
2022-12-06T16:40:04.290Z,68.90
2022-12-06T16:42:31.187Z,68.90
2022-12-06T16:44:58.136Z,69.00
2022-12-06T16:49:50.719Z,69.10
2022-12-06T16:52:17.659Z,69.20
2022-12-06T16:54:45.090Z,70.00
2022-12-06T16:57:12.763Z,69.30
2022-12-06T16:59:40.549Z,69.20
2022-12-06T17:02:25.715Z,69.20
2022-12-06T17:04:52.492Z,69.10
2022-12-06T17:07:19.409Z,69.10
2022-12-06T17:09:46.186Z,69.10
2022-12-06T17:12:15.079Z,69.10
2022-12-06T17:14:42.483Z,69.20
2022-12-06T17:17:29.275Z,69.20
2022-12-06T17:19:56.372Z,68.90
2022-12-06T17:22:23.404Z,68.90
2022-12-06T17:24:50.235Z,68.90
2022-12-06T17:27:17.680Z,69.00
2022-12-06T17:29:45.436Z,69.00
2022-12-06T17:32:13.015Z,69.00
2022-12-06T17:34:39.907Z,69.00
2022-12-06T17:37:06.661Z,69.00
2022-12-06T17:39:33.740Z,68.90
2022-12-06T17:42:19.278Z,68.90
2022-12-06T17:44:46.220Z,69.10
2022-12-06T17:47:13.137Z,69.10
2022-12-06T17:49:39.962Z,70.00
2022-12-06T17:52:06.830Z,69.10
2022-12-06T17:54:33.697Z,69.10
2022-12-06T17:57:00.465Z,69.20
2022-12-06T17:59:30.216Z,69.20
2022-12-06T18:02:16.463Z,69.10
2022-12-06T18:04:44.895Z,69.10
2022-12-06T18:07:13.204Z,69.10
2022-12-06T18:09:40.390Z,69.20
2022-12-06T18:12:11.900Z,69.10
2022-12-06T18:14:38.726Z,69.10
2022-12-06T18:17:05.775Z,69.10
2022-12-06T18:19:33.338Z,69.20
2022-12-06T18:22:00.176Z,69.30
2022-12-06T18:24:32.032Z,69.20
2022-12-06T18:27:02.082Z,69.20
2022-12-06T18:29:29.041Z,69.30
2022-12-06T18:31:55.927Z,69.30
2022-12-06T18:34:23.107Z,69.20
2022-12-06T18:36:50.974Z,69.20
2022-12-06T18:39:24.393Z,69.20
2022-12-06T18:41:53.148Z,69.40
2022-12-06T18:44:20.176Z,69.20
2022-12-06T18:46:47.035Z,69.10
2022-12-06T18:49:14.406Z,69.10
2022-12-06T18:51:41.703Z,69.10
2022-12-06T18:54:09.083Z,69.10
2022-12-06T18:56:36.457Z,69.10
2022-12-06T18:59:08.592Z,68.90
2022-12-06T19:01:37.312Z,69.00
2022-12-06T19:04:06.630Z,68.90
2022-12-06T19:06:35.885Z,68.90
2022-12-06T19:09:09.417Z,69.00
2022-12-06T19:11:37.966Z,68.90
2022-12-06T19:14:05.701Z,69.00
2022-12-06T19:16:46.018Z,69.00
2022-12-06T19:19:19.557Z,69.10
2022-12-06T19:21:47.487Z,69.00
2022-12-06T19:24:20.020Z,69.10
2022-12-06T19:26:47.245Z,69.00
2022-12-06T19:29:15.423Z,69.00
2022-12-06T19:31:43.142Z,68.90
2022-12-06T19:34:19.373Z,68.90
2022-12-06T19:36:47.922Z,69.00
2022-12-06T19:39:14.827Z,69.10
2022-12-06T19:42:00.990Z,68.70
2022-12-06T19:44:29.285Z,68.70
2022-12-06T19:46:56.935Z,68.80
2022-12-06T19:49:25.794Z,68.70
2022-12-06T19:51:53.179Z,68.80
2022-12-06T19:54:23.145Z,68.80
2022-12-06T19:56:53.031Z,68.80
2022-12-06T19:59:22.145Z,68.80
2022-12-06T20:01:50.209Z,69.00
2022-12-06T20:04:26.701Z,68.70
2022-12-06T20:06:54.673Z,68.60
2022-12-06T20:09:24.236Z,68.60
2022-12-06T20:12:03.250Z,68.50
2022-12-06T20:14:37.769Z,68.50
2022-12-06T20:17:10.768Z,68.40
2022-12-06T20:19:38.981Z,68.50
2022-12-06T20:22:06.046Z,68.50
2022-12-06T20:24:32.968Z,68.60
2022-12-06T20:26:59.774Z,68.60
2022-12-06T20:29:27.154Z,68.60
2022-12-06T20:31:58.042Z,67.70
2022-12-06T20:34:25.946Z,68.70
2022-12-06T20:36:52.928Z,68.60
2022-12-06T20:39:22.899Z,68.70
2022-12-06T20:41:50.547Z,68.70
2022-12-06T20:44:18.773Z,68.70
2022-12-06T20:46:46.287Z,68.70
2022-12-06T20:49:14.037Z,68.80
2022-12-06T20:51:40.867Z,68.90
2022-12-06T20:54:08.579Z,68.80
2022-12-06T20:56:39.122Z,68.80
2022-12-06T20:59:07.814Z,69.50
2022-12-06T21:01:39.613Z,68.60
2022-12-06T21:04:07.064Z,68.50
2022-12-06T21:06:33.924Z,68.50
2022-12-06T21:09:00.966Z,68.70
2022-12-06T21:11:27.911Z,69.00
2022-12-06T21:13:56.850Z,68.80
2022-12-06T21:16:26.819Z,68.60
2022-12-06T21:19:05.915Z,68.50
2022-12-06T21:21:35.586Z,68.50
2022-12-06T21:24:04.334Z,68.30
2022-12-06T21:26:31.716Z,68.30
2022-12-06T21:28:59.668Z,68.40
2022-12-06T21:31:28.735Z,68.60
2022-12-06T21:33:56.217Z,68.60
2022-12-06T21:36:23.967Z,69.00
2022-12-06T21:38:51.291Z,68.70
2022-12-06T21:41:19.975Z,68.70
2022-12-06T21:43:47.095Z,68.60
2022-12-06T21:46:20.045Z,68.70
2022-12-06T21:48:55.403Z,68.70
2022-12-06T21:51:23.488Z,68.80
2022-12-06T21:53:50.889Z,68.70
2022-12-06T21:56:20.413Z,68.60
2022-12-06T21:58:48.735Z,68.50
2022-12-06T22:01:25.024Z,68.50
2022-12-06T22:03:53.916Z,68.60
2022-12-06T22:06:21.537Z,68.60
2022-12-06T22:08:54.946Z,68.60
2022-12-06T22:11:21.789Z,68.70
2022-12-06T22:13:48.845Z,68.30
2022-12-06T22:16:16.702Z,70.20
2022-12-06T22:18:45.969Z,68.20
2022-12-06T22:21:19.675Z,68.20
2022-12-06T22:23:47.462Z,68.20
2022-12-06T22:26:16.807Z,68.10
2022-12-06T22:28:43.910Z,68.00
2022-12-06T22:31:21.915Z,68.10
2022-12-06T22:33:49.728Z,68.30
2022-12-06T22:36:17.574Z,68.40
2022-12-06T22:38:47.763Z,68.50
2022-12-06T22:41:14.611Z,68.80
2022-12-06T22:43:41.504Z,68.70
2022-12-06T22:46:14.029Z,68.60
2022-12-06T22:48:42.184Z,69.40
2022-12-06T22:51:14.827Z,68.60
2022-12-06T22:53:43.325Z,68.70
2022-12-06T22:56:10.657Z,68.80
2022-12-06T22:58:37.968Z,69.10
2022-12-06T23:01:16.367Z,69.20
2022-12-06T23:03:48.107Z,69.30
2022-12-06T23:06:16.056Z,69.20
2022-12-06T23:08:43.743Z,69.40
2022-12-06T23:11:11.877Z,67.60
2022-12-06T23:13:39.057Z,70.50
2022-12-06T23:16:10.969Z,69.30
2022-12-06T23:18:38.323Z,69.30
2022-12-06T23:21:12.121Z,69.40
2022-12-06T23:23:41.317Z,69.40
2022-12-06T23:26:10.574Z,69.50
2022-12-06T23:28:37.997Z,69.40
2022-12-06T23:31:07.449Z,69.20
2022-12-06T23:33:34.818Z,69.10
2022-12-06T23:36:14.016Z,69.10
2022-12-06T23:38:41.167Z,69.10
2022-12-06T23:41:10.697Z,69.20
2022-12-06T23:43:38.792Z,69.30
2022-12-06T23:46:07.969Z,69.10
2022-12-06T23:48:36.108Z,69.00
2022-12-06T23:51:05.825Z,69.00
2022-12-06T23:53:34.073Z,68.90
2022-12-06T23:56:07.280Z,68.90
2022-12-06T23:58:34.292Z,68.90
